Terminal Aerodrome Forecast
Issued by NWS

Home | Current Version | Previous Version | Graphics & Text | Print | Product List | Glossary On
Versions: 1 2 3 4 5 6 7 8 9 10 11 12 13 14 15 16 17 18 19
000
FTUS43 KFGF 200429 AAA
TAFBJI
TAF AMD
KBJI 200429Z 2004/2024 12015G24KT P6SM -TSRA OVC040CB
      TEMPO 2004/2006 2SM TSRA BKN015CB
     FM200600 15015G24KT 5SM TSRA OVC025CB
     FM200800 17011G23KT P6SM OVC020
     FM201300 25009KT P6SM BKN035
     FM201800 25012G23KT P6SM FEW090=

USA.gov is the U.S. government's official web portal to all federal, state and local government web resources and services.